Time;durP1;ratioP1;P1;durP2;ratioP2;P2;SDS_P1;SDS_P2;PMS_P1;PMS_P2;Temp;Humidity;BMP_temperature;BMP_pressure;BME280_temperature;BME280_humidity;BME280_pressure;Samples;Min_cycle;Max_cycle;Signal;HPM_P1;HPM_P2
2022/06/02 00:01:41;;;;;;;0.30;0.20;;;14.20;99.90;;;;;;5086276;28;20465;-87
2022/06/02 00:04:26;;;;;;;0.30;0.20;;;14.30;99.90;;;;;;5087368;28;21008;-86
2022/06/02 00:06:59;;;;;;;0.30;0.20;;;14.30;99.90;;;;;;5088268;28;20462;-86
2022/06/02 00:09:46;;;;;;;0.30;0.20;;;14.30;99.90;;;;;;5087021;28;20515;-86
2022/06/02 00:12:23;;;;;;;0.30;0.20;;;14.10;99.90;;;;;;5084450;28;20486;-86
2022/06/02 00:14:56;;;;;;;0.30;0.20;;;14.10;99.90;;;;;;5082029;28;20929;-86
2022/06/02 00:17:33;;;;;;;0.30;0.20;;;14.00;99.90;;;;;;5088778;28;20458;-87
2022/06/02 00:20:05;;;;;;;0.30;0.20;;;14.00;99.90;;;;;;5087598;28;20447;-87
2022/06/02 00:22:39;;;;;;;0.30;0.20;;;14.00;99.90;;;;;;5083091;28;20495;-86
2022/06/02 00:25:12;;;;;;;0.30;0.20;;;14.00;99.90;;;;;;5085186;28;20982;-87
2022/06/02 00:27:48;;;;;;;0.30;0.20;;;13.90;99.90;;;;;;5087864;28;20861;-87
2022/06/02 00:30:21;;;;;;;0.97;0.60;;;14.00;99.90;;;;;;5092782;28;20453;-87
2022/06/02 00:33:01;;;;;;;0.30;0.20;;;14.00;99.90;;;;;;5096925;28;20551;-87
2022/06/02 00:35:35;;;;;;;0.30;0.30;;;14.10;99.90;;;;;;5094180;28;20953;-87
2022/06/02 00:38:06;;;;;;;0.30;0.20;;;14.00;99.90;;;;;;5101250;28;20451;-87
2022/06/02 00:40:35;;;;;;;0.30;0.20;;;13.90;99.90;;;;;;5090774;28;20512;-86
2022/06/02 00:43:36;;;;;;;0.43;0.30;;;13.80;99.90;;;;;;5085378;28;20447;-87
2022/06/02 00:46:14;;;;;;;0.30;0.20;;;13.70;99.90;;;;;;5086328;28;20527;-87
2022/06/02 00:48:52;;;;;;;0.30;0.20;;;13.80;99.90;;;;;;5087103;28;20532;-86
2022/06/02 00:51:30;;;;;;;0.30;0.20;;;13.80;99.90;;;;;;5088337;28;20496;-87
2022/06/02 00:59:57;;;;;;;0.30;0.20;;;13.80;99.90;;;;;;5088661;28;20536;-87
2022/06/02 01:02:26;;;;;;;0.30;0.20;;;13.90;99.90;;;;;;5085316;28;20439;-87
2022/06/02 01:04:56;;;;;;;0.30;0.20;;;14.00;99.90;;;;;;5088775;28;20478;-86
2022/06/02 01:07:35;;;;;;;0.30;0.30;;;14.10;99.90;;;;;;5090748;28;20454;-87
2022/06/02 01:10:12;;;;;;;0.30;0.20;;;14.10;99.90;;;;;;5082160;28;20456;-87
2022/06/02 01:13:12;;;;;;;0.30;0.20;;;14.10;99.90;;;;;;5085941;28;21041;-86
2022/06/02 01:15:47;;;;;;;0.30;0.20;;;14.00;99.90;;;;;;5083459;28;20471;-86
2022/06/02 01:18:22;;;;;;;0.90;0.90;;;13.90;99.90;;;;;;5101505;28;21203;-86
2022/06/02 01:21:04;;;;;;;0.30;0.20;;;13.90;99.90;;;;;;5094492;28;20481;-87
2022/06/02 01:23:57;;;;;;;0.30;0.20;;;13.80;99.90;;;;;;5095096;28;20476;-86
2022/06/02 01:27:00;;;;;;;0.30;0.20;;;13.80;99.90;;;;;;5097283;28;20450;-87
2022/06/02 01:29:47;;;;;;;0.30;0.20;;;13.60;99.90;;;;;;5096711;28;20472;-87
2022/06/02 01:32:20;;;;;;;0.30;0.20;;;13.50;99.90;;;;;;5098839;28;21118;-86
2022/06/02 01:34:58;;;;;;;0.30;0.20;;;13.30;99.90;;;;;;5094451;28;20502;-86
2022/06/02 01:37:32;;;;;;;0.30;0.20;;;13.30;99.90;;;;;;5095381;28;20475;-86
2022/06/02 01:40:12;;;;;;;0.30;0.20;;;13.20;99.90;;;;;;5087160;28;20519;-88
2022/06/02 01:42:54;;;;;;;0.30;0.20;;;13.10;99.90;;;;;;5102816;28;20523;-86
2022/06/02 01:45:44;;;;;;;0.30;0.20;;;13.10;99.90;;;;;;5113844;28;20477;-87
2022/06/02 01:48:23;;;;;;;0.30;0.20;;;13.00;99.90;;;;;;5109330;28;20484;-87
2022/06/02 01:51:03;;;;;;;0.30;0.20;;;13.10;99.90;;;;;;5110767;28;20450;-87
2022/06/02 01:53:43;;;;;;;0.30;0.20;;;13.00;99.90;;;;;;5112781;28;20453;-85
2022/06/02 01:56:45;;;;;;;0.30;0.20;;;13.00;99.90;;;;;;5105875;28;20522;-86
2022/06/02 01:59:28;;;;;;;0.30;0.20;;;13.10;99.90;;;;;;5105722;28;20495;-85
2022/06/02 02:02:03;;;;;;;0.30;0.20;;;13.00;99.90;;;;;;5107695;28;20496;-85
2022/06/02 02:04:43;;;;;;;0.30;0.20;;;13.00;99.90;;;;;;5114130;28;20496;-86
2022/06/02 02:07:19;;;;;;;0.30;0.20;;;13.00;99.90;;;;;;5109308;28;20461;-87
2022/06/02 02:09:57;;;;;;;0.40;0.40;;;12.90;99.90;;;;;;5107031;28;20909;-86
2022/06/02 02:12:40;;;;;;;0.30;0.20;;;12.90;99.90;;;;;;5109488;28;20490;-85
2022/06/02 02:15:21;;;;;;;0.40;0.30;;;12.90;99.90;;;;;;5104673;28;20510;-85
2022/06/02 02:18:20;;;;;;;0.30;0.20;;;12.90;99.90;;;;;;5084217;28;20548;-88
2022/06/02 02:21:17;;;;;;;0.30;0.20;;;13.00;99.90;;;;;;5054016;28;22798;-87
2022/06/02 02:23:56;;;;;;;0.30;0.20;;;13.10;99.90;;;;;;5091939;28;21094;-85
2022/06/02 02:26:30;;;;;;;0.30;0.20;;;13.20;99.90;;;;;;5086074;28;20500;-86
2022/06/02 02:29:08;;;;;;;0.50;0.30;;;13.30;99.90;;;;;;5085143;28;20500;-87
2022/06/02 02:31:46;;;;;;;0.30;0.20;;;13.50;99.90;;;;;;5093194;28;20456;-87
2022/06/02 02:34:28;;;;;;;0.30;0.20;;;13.50;99.90;;;;;;5089843;28;20478;-88
2022/06/02 02:37:03;;;;;;;0.30;0.20;;;13.50;99.90;;;;;;5090625;28;20442;-88
2022/06/02 02:39:39;;;;;;;0.30;0.20;;;13.50;99.90;;;;;;5081128;28;20475;-88
2022/06/02 02:42:13;;;;;;;0.30;0.20;;;13.40;99.90;;;;;;5081651;28;20453;-88
2022/06/02 02:44:47;;;;;;;0.30;0.20;;;13.30;99.90;;;;;;5095809;28;20504;-88
2022/06/02 02:47:22;;;;;;;0.30;0.20;;;13.20;99.90;;;;;;5082782;28;20466;-87
2022/06/02 02:49:54;;;;;;;0.30;0.20;;;13.10;99.90;;;;;;5084463;28;20796;-87
2022/06/02 02:52:32;;;;;;;0.30;0.20;;;13.00;99.90;;;;;;5091284;28;20446;-88
2022/06/02 02:55:05;;;;;;;0.30;0.20;;;13.00;99.90;;;;;;5092109;28;20457;-88
2022/06/02 02:57:40;;;;;;;0.30;0.20;;;13.00;99.90;;;;;;5082328;28;20783;-88
2022/06/02 03:00:15;;;;;;;0.30;0.20;;;12.90;99.90;;;;;;5080268;28;20457;-88
2022/06/02 03:02:48;;;;;;;0.30;0.20;;;12.80;99.90;;;;;;5082615;28;20464;-88
2022/06/02 03:05:19;;;;;;;0.30;0.20;;;12.70;99.90;;;;;;5087832;28;20890;-87
2022/06/02 03:07:47;;;;;;;0.30;0.20;;;12.70;99.90;;;;;;5084582;28;21035;-88
2022/06/02 03:10:19;;;;;;;0.30;0.20;;;12.80;99.90;;;;;;5087782;28;20457;-88
2022/06/02 03:13:06;;;;;;;0.30;0.20;;;12.90;99.90;;;;;;5084204;28;20455;-88
2022/06/02 03:15:40;;;;;;;0.30;0.20;;;13.00;99.90;;;;;;5084330;28;20504;-88
2022/06/02 03:18:34;;;;;;;0.30;0.20;;;13.10;99.90;;;;;;5084791;28;20499;-87
2022/06/02 03:21:11;;;;;;;0.30;0.20;;;13.10;99.90;;;;;;5080712;28;20464;-89
2022/06/02 03:24:02;;;;;;;0.50;0.50;;;13.10;99.90;;;;;;5090949;28;20478;-89
2022/06/02 03:26:41;;;;;;;0.30;0.20;;;13.20;99.90;;;;;;5093194;28;20443;-88
2022/06/02 03:29:18;;;;;;;0.30;0.20;;;13.30;99.90;;;;;;5088642;28;20462;-88
2022/06/02 03:31:52;;;;;;;0.40;0.30;;;13.40;99.90;;;;;;5099230;28;20459;-89
2022/06/02 03:34:26;;;;;;;0.30;0.20;;;13.40;99.90;;;;;;5104311;28;20535;-88
2022/06/02 03:37:17;;;;;;;0.30;0.20;;;13.40;99.90;;;;;;5092276;28;20510;-88
2022/06/02 03:40:02;;;;;;;0.30;0.20;;;13.50;99.90;;;;;;5087810;28;20857;-88
2022/06/02 03:42:41;;;;;;;0.30;0.20;;;13.40;99.90;;;;;;5087693;28;20946;-88
2022/06/02 03:45:23;;;;;;;0.30;0.20;;;13.70;99.90;;;;;;5084478;28;20493;-88
2022/06/02 03:48:09;;;;;;;0.30;0.20;;;13.70;99.90;;;;;;5083293;28;20454;-88
2022/06/02 03:50:59;;;;;;;0.30;0.20;;;13.80;99.90;;;;;;5085198;28;20516;-87
2022/06/02 03:53:50;;;;;;;0.30;0.20;;;13.80;99.90;;;;;;5078243;28;20539;-90
2022/06/02 03:56:33;;;;;;;0.60;0.53;;;13.80;99.90;;;;;;5085688;28;20455;-88
2022/06/02 03:59:13;;;;;;;0.30;0.20;;;13.90;99.90;;;;;;5085373;28;21146;-88
2022/06/02 04:01:44;;;;;;;0.30;0.20;;;13.80;99.90;;;;;;5088355;28;20447;-89
2022/06/02 04:04:23;;;;;;;0.30;0.20;;;14.00;99.90;;;;;;5085020;28;20782;-88
2022/06/02 04:07:01;;;;;;;0.30;0.20;;;14.10;99.90;;;;;;5084482;28;21008;-88
2022/06/02 04:09:36;;;;;;;0.30;0.20;;;14.20;99.90;;;;;;5082770;28;20497;-87
2022/06/02 04:15:23;;;;;;;0.30;0.20;;;14.40;99.90;;;;;;5089898;28;20500;-88
2022/06/02 04:18:00;;;;;;;0.30;0.20;;;14.60;99.90;;;;;;5089412;28;20611;-89
2022/06/02 04:20:41;;;;;;;0.30;0.20;;;14.70;99.90;;;;;;5082937;28;20515;-88
2022/06/02 04:23:32;;;;;;;0.30;0.20;;;14.80;99.90;;;;;;5085006;28;20469;-88
2022/06/02 04:26:16;;;;;;;0.30;0.20;;;15.00;99.90;;;;;;5087052;28;20925;-88
2022/06/02 04:28:53;;;;;;;0.30;0.20;;;15.00;99.90;;;;;;5089713;28;20965;-88
2022/06/02 04:31:33;;;;;;;0.30;0.20;;;15.00;99.90;;;;;;5091359;28;20461;-89
2022/06/02 04:34:11;;;;;;;0.30;0.20;;;15.10;99.90;;;;;;5084862;28;20454;-88
2022/06/02 04:36:56;;;;;;;0.30;0.20;;;15.20;99.90;;;;;;5084730;28;20453;-89
2022/06/02 04:39:28;;;;;;;0.30;0.20;;;15.30;99.90;;;;;;5087414;28;20466;-87
2022/06/02 04:42:04;;;;;;;0.30;0.20;;;15.40;99.90;;;;;;5088414;28;20446;-88
2022/06/02 04:44:41;;;;;;;0.30;0.20;;;15.40;99.90;;;;;;5084276;28;20490;-88
2022/06/02 04:47:18;;;;;;;0.30;0.20;;;15.50;99.90;;;;;;5090924;28;20464;-88
2022/06/02 04:49:56;;;;;;;0.80;0.40;;;15.60;99.90;;;;;;5089362;28;20546;-89
2022/06/02 04:52:32;;;;;;;0.30;0.20;;;15.70;99.90;;;;;;5089122;28;20475;-88
2022/06/02 04:55:06;;;;;;;0.30;0.20;;;15.80;99.90;;;;;;5086280;28;20462;-90
2022/06/02 04:57:40;;;;;;;0.30;0.30;;;15.80;99.90;;;;;;5085330;28;20899;-89
2022/06/02 05:00:14;;;;;;;0.40;0.30;;;16.00;99.90;;;;;;5085201;28;20462;-88
2022/06/02 05:02:56;;;;;;;0.50;0.40;;;16.20;99.90;;;;;;5089771;28;20933;-88
2022/06/02 05:05:32;;;;;;;0.30;0.20;;;16.30;99.90;;;;;;5086261;28;20490;-88
2022/06/02 05:08:36;;;;;;;0.30;0.20;;;16.50;99.90;;;;;;5083168;28;20928;-88
2022/06/02 05:11:14;;;;;;;0.30;0.20;;;16.60;99.90;;;;;;5073487;28;20454;-88
2022/06/02 05:13:49;;;;;;;0.30;0.30;;;16.70;99.90;;;;;;5082297;28;20514;-87
2022/06/02 05:16:25;;;;;;;0.30;0.20;;;16.80;99.90;;;;;;5086184;28;20475;-88
2022/06/02 05:19:14;;;;;;;0.30;0.20;;;17.10;99.90;;;;;;5085515;28;20466;-89
2022/06/02 05:22:09;;;;;;;0.30;0.20;;;17.20;99.90;;;;;;5061718;28;20806;-89
2022/06/02 05:25:14;;;;;;;0.30;0.20;;;17.00;99.90;;;;;;5085015;28;20482;-88
2022/06/02 05:27:58;;;;;;;0.43;0.40;;;16.90;99.90;;;;;;5094001;28;20878;-88
2022/06/02 05:30:51;;;;;;;0.30;0.20;;;17.20;99.90;;;;;;5083108;28;20578;-88
2022/06/02 05:33:43;;;;;;;0.30;0.20;;;17.40;99.90;;;;;;5079315;28;20525;-89
2022/06/02 05:36:36;;;;;;;0.30;0.20;;;17.50;99.90;;;;;;5061447;28;20511;-89
2022/06/02 05:39:17;;;;;;;0.30;0.20;;;17.50;99.90;;;;;;5080716;28;20458;-88
2022/06/02 05:42:03;;;;;;;0.30;0.20;;;17.40;99.90;;;;;;5084757;28;20465;-89
2022/06/02 05:44:46;;;;;;;0.30;0.20;;;17.40;99.90;;;;;;5084241;28;20439;-90
2022/06/02 05:47:24;;;;;;;0.30;0.20;;;17.50;99.90;;;;;;5083112;28;20452;-89
2022/06/02 05:50:02;;;;;;;0.30;0.20;;;17.60;99.90;;;;;;5093658;28;20510;-90
2022/06/02 05:52:40;;;;;;;0.30;0.20;;;17.50;99.90;;;;;;5086034;28;20535;-90
2022/06/02 05:55:19;;;;;;;0.30;0.20;;;17.60;99.90;;;;;;5089745;28;20434;-91
2022/06/02 05:57:55;;;;;;;0.30;0.20;;;17.60;99.90;;;;;;5083731;28;20489;-88
2022/06/02 06:00:32;;;;;;;0.30;0.20;;;17.60;99.90;;;;;;5087117;28;20445;-90
2022/06/02 06:03:37;;;;;;;0.30;0.20;;;17.50;99.90;;;;;;5081291;28;20439;-89
2022/06/02 06:06:19;;;;;;;0.30;0.20;;;17.00;99.90;;;;;;5075040;28;20555;-88
2022/06/02 06:09:04;;;;;;;0.30;0.20;;;17.00;99.90;;;;;;5088536;28;20493;-89
2022/06/02 06:12:10;;;;;;;0.30;0.20;;;17.00;99.90;;;;;;5085386;28;20467;-91
2022/06/02 06:14:46;;;;;;;0.30;0.20;;;16.80;99.90;;;;;;5082862;28;20560;-90
2022/06/02 06:17:23;;;;;;;0.30;0.20;;;17.00;99.90;;;;;;5086243;28;20435;-89
2022/06/02 06:20:08;;;;;;;0.30;0.20;;;17.40;99.90;;;;;;5084323;28;20455;-89
2022/06/02 06:23:05;;;;;;;0.30;0.20;;;17.70;99.90;;;;;;5083481;28;20620;-89
2022/06/02 06:25:53;;;;;;;0.30;0.20;;;17.80;99.90;;;;;;5071490;28;20474;-90
2022/06/02 06:28:23;;;;;;;0.50;0.30;;;17.90;99.90;;;;;;5089155;28;20442;-89
2022/06/02 06:31:02;;;;;;;0.30;0.20;;;18.10;99.90;;;;;;5096658;28;20447;-89
2022/06/02 06:33:54;;;;;;;0.30;0.20;;;18.00;99.90;;;;;;5102172;28;20431;-89
2022/06/02 06:36:39;;;;;;;0.30;0.20;;;18.40;99.90;;;;;;5093378;28;20442;-89
2022/06/02 06:39:16;;;;;;;0.30;0.20;;;18.70;99.90;;;;;;5092499;28;20503;-89
2022/06/02 06:42:04;;;;;;;0.30;0.23;;;18.90;99.90;;;;;;5083709;28;20579;-90
2022/06/02 06:44:40;;;;;;;0.30;0.20;;;18.90;99.90;;;;;;5085129;28;20458;-88
2022/06/02 06:47:13;;;;;;;0.43;0.40;;;18.40;99.90;;;;;;5088469;28;20493;-89
2022/06/02 06:49:54;;;;;;;0.30;0.20;;;18.70;99.90;;;;;;5081532;28;20448;-89
2022/06/02 06:53:01;;;;;;;0.30;0.20;;;18.90;99.90;;;;;;5078169;28;21154;-89
2022/06/02 06:55:48;;;;;;;0.30;0.20;;;19.30;99.90;;;;;;5072233;28;21068;-89
2022/06/02 06:58:25;;;;;;;0.30;0.20;;;19.20;99.90;;;;;;5082208;28;20543;-89
2022/06/02 07:01:00;;;;;;;0.40;0.30;;;19.60;99.90;;;;;;5087478;28;20442;-89
2022/06/02 07:03:38;;;;;;;0.40;0.30;;;19.10;99.90;;;;;;5083874;28;20527;-90
2022/06/02 07:06:15;;;;;;;0.30;0.20;;;18.80;99.90;;;;;;5081827;28;20479;-89
2022/06/02 07:08:48;;;;;;;0.30;0.20;;;18.80;99.90;;;;;;5085216;28;20549;-89
2022/06/02 07:14:15;;;;;;;0.30;0.20;;;19.50;99.90;;;;;;5085925;28;20444;-90
2022/06/02 07:16:48;;;;;;;0.30;0.20;;;19.50;99.90;;;;;;5087178;28;20461;-91
2022/06/02 07:19:25;;;;;;;0.37;0.30;;;19.50;99.90;;;;;;5082581;28;20454;-89
2022/06/02 07:21:57;;;;;;;0.30;0.30;;;19.70;99.90;;;;;;5083930;28;20460;-90
2022/06/02 07:24:35;;;;;;;0.30;0.20;;;20.00;99.90;;;;;;5084032;28;20475;-90
2022/06/02 07:27:19;;;;;;;0.30;0.20;;;19.10;99.90;;;;;;5090060;28;20486;-89
2022/06/02 07:30:04;;;;;;;0.30;0.20;;;19.10;99.90;;;;;;5091642;28;20447;-89
2022/06/02 07:33:02;;;;;;;0.30;0.20;;;19.40;99.90;;;;;;5087963;28;20451;-90
2022/06/02 07:36:02;;;;;;;0.30;0.20;;;19.90;99.90;;;;;;5094589;28;20546;-89
2022/06/02 07:38:55;;;;;;;0.30;0.20;;;20.40;99.90;;;;;;5100933;28;20496;-89
2022/06/02 07:41:46;;;;;;;0.30;0.20;;;20.50;99.90;;;;;;5087371;28;20772;-89
2022/06/02 07:44:47;;;;;;;0.30;0.20;;;20.70;99.90;;;;;;5088227;28;20442;-88
2022/06/02 07:47:38;;;;;;;0.30;0.20;;;20.40;99.90;;;;;;5093250;28;20481;-88
2022/06/02 07:50:12;;;;;;;0.30;0.20;;;20.20;99.90;;;;;;5088613;28;20481;-89
2022/06/02 07:52:52;;;;;;;0.30;0.20;;;19.90;99.90;;;;;;5088498;28;20458;-90
2022/06/02 07:55:31;;;;;;;0.30;0.20;;;20.20;99.90;;;;;;5086438;28;20464;-90
2022/06/02 07:58:08;;;;;;;0.40;0.20;;;20.20;99.90;;;;;;5081266;28;20954;-89
2022/06/02 08:00:44;;;;;;;0.30;0.20;;;20.30;99.90;;;;;;5080805;28;20456;-90
2022/06/02 08:03:37;;;;;;;0.40;0.30;;;20.20;99.90;;;;;;5087841;28;20441;-90
2022/06/02 08:06:11;;;;;;;0.30;0.20;;;20.30;99.90;;;;;;5084810;28;21228;-91
2022/06/02 08:08:46;;;;;;;0.37;0.20;;;20.70;99.90;;;;;;5087725;28;20987;-94
2022/06/02 08:11:36;;;;;;;0.33;0.20;;;20.80;99.90;;;;;;5083926;28;20862;-88
2022/06/02 08:14:13;;;;;;;0.40;0.30;;;20.70;99.90;;;;;;5087167;28;20511;-86
2022/06/02 08:16:55;;;;;;;0.30;0.20;;;20.70;99.90;;;;;;5087085;28;20458;-89
2022/06/02 08:19:35;;;;;;;0.40;0.30;;;20.50;99.90;;;;;;5086953;28;20465;-90
2022/06/02 08:22:06;;;;;;;0.40;0.20;;;20.70;99.90;;;;;;5081815;28;20454;-90
2022/06/02 08:24:55;;;;;;;0.40;0.30;;;21.20;99.90;;;;;;5085339;28;20482;-91
2022/06/02 08:27:44;;;;;;;0.40;0.20;;;20.90;98.30;;;;;;5082006;28;21003;-92
2022/06/02 08:30:18;;;;;;;0.30;0.20;;;20.50;99.20;;;;;;5087288;28;20498;-89
2022/06/02 08:33:05;;;;;;;0.40;0.20;;;20.40;99.80;;;;;;5087839;28;20445;-94
2022/06/02 08:35:38;;;;;;;0.40;0.30;;;20.40;99.30;;;;;;5086345;28;20461;-91
2022/06/02 08:38:27;;;;;;;0.40;0.20;;;20.90;99.00;;;;;;5083493;28;20532;-90
2022/06/02 08:41:30;;;;;;;0.40;0.30;;;20.80;99.30;;;;;;5076843;28;20524;-89
2022/06/02 08:44:46;;;;;;;0.53;0.53;;;21.10;98.40;;;;;;5085534;28;20460;-90
2022/06/02 08:47:49;;;;;;;0.40;0.20;;;21.20;98.20;;;;;;5082256;28;21156;-91
2022/06/02 08:51:01;;;;;;;0.40;0.20;;;22.30;98.40;;;;;;5085986;28;20446;-90
2022/06/02 08:54:02;;;;;;;0.40;0.20;;;21.60;96.80;;;;;;5084399;28;20447;-90
2022/06/02 08:57:08;;;;;;;0.40;0.30;;;22.20;98.00;;;;;;5082865;28;21455;-92
2022/06/02 09:00:15;;;;;;;0.40;0.20;;;22.40;97.00;;;;;;5069677;28;20494;-90
2022/06/02 09:03:30;;;;;;;0.40;0.20;;;22.40;97.00;;;;;;5081700;28;20701;-90
2022/06/02 09:06:30;;;;;;;0.50;0.33;;;21.80;95.30;;;;;;5071126;28;21970;-91
2022/06/02 09:09:41;;;;;;;0.40;0.20;;;21.70;96.30;;;;;;5076994;28;20483;-91
2022/06/02 09:12:41;;;;;;;0.40;0.20;;;21.90;98.20;;;;;;5081559;28;20473;-90
2022/06/02 09:15:27;;;;;;;0.50;0.50;;;21.90;96.70;;;;;;5067051;28;21071;-90
2022/06/02 09:18:16;;;;;;;0.40;0.20;;;22.10;97.80;;;;;;5083518;28;20463;-91
2022/06/02 09:20:50;;;;;;;0.40;0.20;;;22.20;95.70;;;;;;5086154;28;20483;-91
2022/06/02 09:23:48;;;;;;;0.40;0.20;;;22.50;96.70;;;;;;5091267;28;20573;-91
2022/06/02 09:26:44;;;;;;;0.40;0.30;;;22.70;93.40;;;;;;5061131;28;20484;-91
2022/06/02 09:29:22;;;;;;;0.40;0.30;;;22.90;93.30;;;;;;5082956;28;20450;-91
2022/06/02 09:32:09;;;;;;;0.40;0.20;;;23.40;93.90;;;;;;5092576;28;21404;-91
2022/06/02 09:34:49;;;;;;;0.50;0.50;;;24.40;92.10;;;;;;5094690;28;20450;-91
2022/06/02 09:37:54;;;;;;;0.40;0.20;;;24.20;90.70;;;;;;5099228;28;20461;-90
2022/06/02 09:40:47;;;;;;;0.40;0.20;;;24.00;92.50;;;;;;5084985;28;20531;-90
2022/06/02 09:43:50;;;;;;;0.40;0.20;;;23.30;92.20;;;;;;5083601;28;20446;-89
2022/06/02 09:46:48;;;;;;;0.67;0.50;;;23.10;92.50;;;;;;5068107;28;20818;-90
2022/06/02 09:49:47;;;;;;;0.40;0.30;;;23.20;92.90;;;;;;5078096;28;21037;-91
2022/06/02 09:52:28;;;;;;;0.40;0.20;;;23.20;92.80;;;;;;5078201;28;20902;-89
2022/06/02 09:55:14;;;;;;;0.40;0.20;;;23.40;91.90;;;;;;5078549;28;20451;-89
2022/06/02 09:58:02;;;;;;;0.40;0.20;;;23.30;90.40;;;;;;5086786;28;20591;-89
2022/06/02 10:00:51;;;;;;;0.40;0.30;;;23.20;90.10;;;;;;5087648;28;20562;-89
2022/06/02 10:03:54;;;;;;;0.40;0.40;;;23.30;90.30;;;;;;5081729;28;20463;-88
2022/06/02 10:06:58;;;;;;;0.40;0.20;;;22.80;91.10;;;;;;5103149;28;20519;-91
2022/06/02 10:09:36;;;;;;;0.40;0.20;;;23.60;90.10;;;;;;5100152;28;20484;-89
2022/06/02 10:15:14;;;;;;;0.40;0.30;;;24.20;88.20;;;;;;5082438;28;20581;-90
2022/06/02 10:18:03;;;;;;;0.40;0.20;;;24.40;85.20;;;;;;5082193;28;20451;-91
2022/06/02 10:20:53;;;;;;;0.40;0.20;;;24.70;85.00;;;;;;5079845;28;20465;-90
2022/06/02 10:23:56;;;;;;;0.40;0.20;;;24.90;85.50;;;;;;5082356;28;20573;-91
2022/06/02 10:26:35;;;;;;;0.40;0.20;;;24.50;84.20;;;;;;5080442;28;20531;-90
2022/06/02 10:29:39;;;;;;;0.40;0.30;;;25.00;88.30;;;;;;5080349;28;21231;-91
2022/06/02 10:32:43;;;;;;;0.40;0.30;;;24.60;83.30;;;;;;5074876;28;20475;-90
2022/06/02 10:35:43;;;;;;;0.40;0.30;;;24.40;87.70;;;;;;5078425;28;20535;-91
2022/06/02 10:38:26;;;;;;;0.40;0.20;;;23.90;88.00;;;;;;5050227;28;20511;-90
2022/06/02 10:41:20;;;;;;;0.40;0.30;;;24.00;91.20;;;;;;5075095;28;20578;-90
2022/06/02 10:44:13;;;;;;;0.40;0.20;;;23.70;87.40;;;;;;5078918;28;20537;-89
2022/06/02 10:47:07;;;;;;;0.40;0.20;;;23.90;86.30;;;;;;5074907;28;20528;-91
2022/06/02 10:49:39;;;;;;;0.43;0.30;;;24.60;86.30;;;;;;5062230;28;20470;-90
2022/06/02 10:52:59;;;;;;;0.40;0.30;;;25.00;89.20;;;;;;5080506;28;20531;-90
2022/06/02 10:55:51;;;;;;;0.50;0.40;;;25.20;86.90;;;;;;5078577;28;20478;-90
2022/06/02 10:59:12;;;;;;;0.40;0.23;;;24.70;83.60;;;;;;5075324;28;20451;-90
2022/06/02 11:02:21;;;;;;;0.40;0.30;;;24.80;83.70;;;;;;5076291;28;20519;-90
2022/06/02 11:05:25;;;;;;;0.40;0.20;;;24.90;87.30;;;;;;5080245;28;20450;-92
2022/06/02 11:08:30;;;;;;;0.40;0.30;;;24.40;85.10;;;;;;5079360;28;20470;-91
2022/06/02 11:11:25;;;;;;;0.40;0.30;;;24.60;88.80;;;;;;5077581;28;20446;-90
2022/06/02 11:14:23;;;;;;;0.40;0.20;;;25.00;86.40;;;;;;5069427;28;20950;-90
2022/06/02 11:17:39;;;;;;;0.40;0.30;;;24.80;84.00;;;;;;5083224;28;20451;-89
2022/06/02 11:20:56;;;;;;;0.40;0.20;;;25.00;86.40;;;;;;5080286;28;20950;-88
2022/06/02 11:23:54;;;;;;;0.40;0.20;;;25.00;83.00;;;;;;5049215;28;20482;-88
2022/06/02 11:26:52;;;;;;;0.40;0.20;;;25.20;87.80;;;;;;5045498;28;20465;-89
2022/06/02 11:30:03;;;;;;;0.40;0.30;;;24.70;85.50;;;;;;5069968;28;20857;-89
2022/06/02 11:32:52;;;;;;;0.50;0.40;;;24.80;83.30;;;;;;5072202;28;20467;-90
2022/06/02 11:35:48;;;;;;;0.40;0.20;;;24.60;87.50;;;;;;5079690;28;20973;-89
2022/06/02 11:38:48;;;;;;;0.40;0.30;;;24.30;85.30;;;;;;5046758;28;20454;-91
2022/06/02 11:41:28;;;;;;;0.70;0.30;;;24.80;82.80;;;;;;5027502;28;20462;-89
2022/06/02 11:44:07;;;;;;;0.50;0.30;;;25.00;83.50;;;;;;5077529;28;20458;-90
2022/06/02 11:46:48;;;;;;;0.40;0.20;;;25.30;82.70;;;;;;5083507;28;20473;-91
2022/06/02 11:49:48;;;;;;;0.40;0.20;;;24.90;83.70;;;;;;5082494;28;20458;-91
2022/06/02 11:52:37;;;;;;;0.40;0.23;;;24.70;84.80;;;;;;5067959;28;20458;-92
2022/06/02 11:55:17;;;;;;;0.40;0.20;;;24.70;83.40;;;;;;5082692;28;20934;-92
2022/06/02 11:58:06;;;;;;;0.40;0.20;;;24.50;85.60;;;;;;5080835;28;20455;-86
2022/06/02 12:01:12;;;;;;;0.40;0.30;;;23.80;88.50;;;;;;5082375;28;20504;-89
2022/06/02 12:04:28;;;;;;;0.40;0.20;;;23.30;84.90;;;;;;5080653;28;20455;-87
2022/06/02 12:07:43;;;;;;;0.40;0.20;;;23.80;79.40;;;;;;5019675;28;20523;-87
2022/06/02 12:10:38;;;;;;;0.40;0.20;;;23.90;77.30;;;;;;5079913;28;20451;-88
2022/06/02 12:13:20;;;;;;;0.40;0.30;;;24.20;80.70;;;;;;5087674;28;20532;-87
2022/06/02 12:16:27;;;;;;;0.40;0.40;;;24.30;77.70;;;;;;5089239;28;20868;-87
2022/06/02 12:19:15;;;;;;;0.40;0.20;;;24.10;74.00;;;;;;5080182;28;20450;-87
2022/06/02 12:22:03;;;;;;;0.70;0.40;;;24.30;76.50;;;;;;5096575;28;20442;-87
2022/06/02 12:24:57;;;;;;;0.40;0.20;;;24.10;73.80;;;;;;5100534;28;20486;-87
2022/06/02 12:28:02;;;;;;;0.40;0.30;;;24.80;78.10;;;;;;5105166;28;20486;-87
2022/06/02 12:30:44;;;;;;;0.40;0.20;;;25.20;76.30;;;;;;5092784;28;21092;-88
2022/06/02 12:33:58;;;;;;;0.50;0.40;;;25.00;80.30;;;;;;5104936;28;20888;-87
2022/06/02 12:36:53;;;;;;;0.40;0.20;;;24.80;79.10;;;;;;5109300;28;20458;-88
2022/06/02 12:39:50;;;;;;;0.40;0.20;;;24.60;77.20;;;;;;5105649;28;20929;-87
2022/06/02 12:42:47;;;;;;;0.40;0.30;;;24.90;79.50;;;;;;5107016;28;20458;-89
2022/06/02 12:45:56;;;;;;;0.40;0.20;;;25.00;76.60;;;;;;5110154;28;20475;-89
2022/06/02 12:48:59;;;;;;;0.47;0.37;;;25.00;72.70;;;;;;5076494;28;21070;-89
2022/06/02 12:51:38;;;;;;;0.40;0.20;;;24.90;61.60;;;;;;5105260;28;20468;-89
2022/06/02 12:54:56;;;;;;;0.40;0.30;;;25.20;60.80;;;;;;5112213;28;20484;-89
2022/06/02 12:58:10;;;;;;;0.40;0.20;;;25.00;72.50;;;;;;5110153;28;20479;-89
2022/06/02 13:00:56;;;;;;;0.40;0.20;;;24.80;68.10;;;;;;4996571;28;20547;-90
2022/06/02 13:03:56;;;;;;;0.40;0.20;;;24.80;67.50;;;;;;4995667;28;20546;-88
2022/06/02 13:06:56;;;;;;;0.40;0.30;;;24.90;69.20;;;;;;5077776;28;20508;-87
2022/06/02 13:09:44;;;;;;;0.40;0.30;;;24.60;71.50;;;;;;5058985;28;20527;-87
2022/06/02 13:12:49;;;;;;;0.40;0.30;;;24.60;67.20;;;;;;5084863;28;21010;-88
2022/06/02 13:15:37;;;;;;;0.40;0.20;;;24.80;64.80;;;;;;5069515;28;20462;-87
2022/06/02 13:18:36;;;;;;;0.40;0.20;;;24.50;68.80;;;;;;5087448;28;20450;-87
2022/06/02 13:21:47;;;;;;;0.40;0.20;;;24.80;64.50;;;;;;5082813;28;20468;-88
2022/06/02 13:24:41;;;;;;;0.40;0.20;;;25.00;65.90;;;;;;5083137;28;20490;-88
2022/06/02 13:27:40;;;;;;;0.40;0.20;;;25.30;63.70;;;;;;5084018;28;21000;-87
2022/06/02 13:30:52;;;;;;;0.40;0.20;;;25.10;61.00;;;;;;5044560;28;20538;-87
2022/06/02 13:33:53;;;;;;;0.40;0.30;;;24.60;64.20;;;;;;5015833;28;20457;-87
2022/06/02 13:36:32;;;;;;;0.40;0.20;;;24.50;60.60;;;;;;5081400;28;20467;-87
2022/06/02 13:39:38;;;;;;;0.40;0.30;;;25.00;63.00;;;;;;5084320;28;20546;-88
2022/06/02 13:42:30;;;;;;;0.50;0.30;;;25.30;62.30;;;;;;5067849;28;20516;-88
2022/06/02 13:45:35;;;;;;;0.40;0.20;;;25.20;59.80;;;;;;5078101;28;20512;-87
2022/06/02 13:48:43;;;;;;;0.40;0.30;;;25.60;59.20;;;;;;5075717;28;20486;-88
2022/06/02 13:51:42;;;;;;;0.40;0.30;;;25.70;61.10;;;;;;5080953;28;20937;-87
2022/06/02 13:57:42;;;;;;;0.40;0.20;;;25.10;59.60;;;;;;5059039;28;20495;-87
2022/06/02 14:00:20;;;;;;;0.40;0.30;;;24.80;61.70;;;;;;5078100;28;20463;-87
2022/06/02 14:03:41;;;;;;;0.50;0.37;;;25.00;64.00;;;;;;5079210;28;20481;-87
2022/06/02 14:06:12;;;;;;;0.50;0.40;;;25.30;62.20;;;;;;5069819;28;20450;-88
2022/06/02 14:09:04;;;;;;;0.40;0.20;;;25.70;63.90;;;;;;5084078;28;20486;-86
2022/06/02 14:11:50;;;;;;;0.40;0.20;;;25.40;60.20;;;;;;5089409;28;20767;-87
2022/06/02 14:14:32;;;;;;;0.40;0.20;;;25.60;58.00;;;;;;5078237;28;20921;-87
2022/06/02 14:17:12;;;;;;;0.40;0.30;;;25.40;59.00;;;;;;5082163;28;20459;-87
2022/06/02 14:20:14;;;;;;;0.40;0.20;;;25.70;66.80;;;;;;5077574;28;20537;-87
2022/06/02 14:23:09;;;;;;;0.40;0.20;;;26.30;66.20;;;;;;5072356;28;21840;-86
2022/06/02 14:25:46;;;;;;;0.40;0.20;;;25.70;59.60;;;;;;5066114;28;20516;-85
2022/06/02 14:28:38;;;;;;;0.40;0.20;;;25.50;58.60;;;;;;5071142;28;20486;-86
2022/06/02 14:31:14;;;;;;;0.40;0.30;;;25.70;61.60;;;;;;5077261;28;20463;-86
2022/06/02 14:33:45;;;;;;;0.40;0.20;;;25.80;59.40;;;;;;5080130;28;20466;-85
2022/06/02 14:36:24;;;;;;;0.40;0.20;;;25.90;58.60;;;;;;5077759;28;20533;-85
2022/06/02 14:39:08;;;;;;;0.40;0.20;;;26.10;56.90;;;;;;5075211;28;20547;-86
2022/06/02 14:41:46;;;;;;;0.40;0.30;;;26.10;61.70;;;;;;5082734;28;20458;-85
2022/06/02 14:44:17;;;;;;;0.40;0.30;;;26.20;62.80;;;;;;5083747;28;20451;-85
2022/06/02 14:47:14;;;;;;;0.40;0.20;;;26.30;60.00;;;;;;5080994;28;20470;-85